createdAt,value
2022-10-19T00:01:41.286Z,6.73
2022-10-19T04:34:37.754Z,8.01
2022-10-19T05:49:03.245Z,6.82
2022-10-19T05:51:49.300Z,6.78
2022-10-19T05:54:28.691Z,6.73
2022-10-19T05:57:14.030Z,6.76
2022-10-19T06:00:01.017Z,6.84
2022-10-19T06:02:40.699Z,6.99
2022-10-19T06:05:25.013Z,7.09
2022-10-19T06:08:16.000Z,7.22
2022-10-19T06:10:54.137Z,7.37
2022-10-19T06:13:43.701Z,7.47
2022-10-19T06:16:34.030Z,6.86
2022-10-19T06:19:21.415Z,7.33
2022-10-19T06:22:24.946Z,7.35
2022-10-19T06:25:39.768Z,7.31
2022-10-19T06:28:26.701Z,7.37
2022-10-19T06:31:07.211Z,7.34
2022-10-19T06:33:52.580Z,7.31
2022-10-19T06:36:31.016Z,6.68
2022-10-19T06:39:34.894Z,7.17
2022-10-19T06:42:16.800Z,7.08
2022-10-19T06:44:58.851Z,7.03
2022-10-19T06:48:07.631Z,7.04
2022-10-19T06:50:59.459Z,6.97
2022-10-19T06:53:40.376Z,6.98
2022-10-19T06:56:22.867Z,6.87
2022-10-19T06:59:14.085Z,6.81
2022-10-19T07:02:03.331Z,6.76
2022-10-19T07:04:39.992Z,6.75
2022-10-19T07:07:32.797Z,6.71
2022-10-19T07:10:19.633Z,6.64
2022-10-19T07:16:04.581Z,6.41
2022-10-19T07:18:47.850Z,6.31
2022-10-19T07:21:30.103Z,6.25
2022-10-19T07:24:13.437Z,6.16
2022-10-19T07:27:05.100Z,6.11
2022-10-19T07:29:46.955Z,5.96
2022-10-19T07:35:33.098Z,5.62
2022-10-19T07:38:11.934Z,5.41
2022-10-19T07:41:05.253Z,5.29
2022-10-19T07:43:45.714Z,5.26
2022-10-19T07:46:28.895Z,5.23
2022-10-19T07:49:08.931Z,5.19
2022-10-19T07:51:51.684Z,5.12
2022-10-19T07:54:58.300Z,5.06
2022-10-19T07:57:57.993Z,4.95
2022-10-19T08:00:56.196Z,4.87
2022-10-19T08:07:10.485Z,4.69
2022-10-19T08:10:04.060Z,4.60
2022-10-19T08:13:16.861Z,4.62
2022-10-19T08:16:02.222Z,4.58
2022-10-19T08:19:06.115Z,4.52
2022-10-19T08:21:49.852Z,4.44
2022-10-19T08:24:40.943Z,4.39
2022-10-19T08:27:16.242Z,4.36
2022-10-19T08:30:02.904Z,4.30
2022-10-19T08:32:48.954Z,4.26
2022-10-19T08:38:29.401Z,4.30
2022-10-19T08:41:16.990Z,4.26
2022-10-19T08:44:18.238Z,4.30
2022-10-19T08:47:07.985Z,4.23
2022-10-19T08:49:46.359Z,4.22
2022-10-19T08:52:51.129Z,4.20
2022-10-19T08:56:12.414Z,4.18
2022-10-19T08:59:24.934Z,4.11
2022-10-19T09:02:09.238Z,4.04
2022-10-19T09:04:49.854Z,3.95
2022-10-19T09:07:38.342Z,3.33
2022-10-19T09:10:42.511Z,3.92
2022-10-19T09:13:41.619Z,3.95
2022-10-19T09:16:45.235Z,3.78
2022-10-19T09:19:37.797Z,3.81
2022-10-19T09:22:20.111Z,3.80
2022-10-19T09:25:08.726Z,3.74
2022-10-19T09:27:55.771Z,3.56
2022-10-19T09:34:11.049Z,3.76
2022-10-19T09:37:04.095Z,3.69
2022-10-19T09:39:55.627Z,3.73
2022-10-19T09:42:40.970Z,3.64
2022-10-19T09:45:50.113Z,3.67
2022-10-19T09:54:47.957Z,3.62
2022-10-19T10:01:09.643Z,3.33
2022-10-19T10:03:48.040Z,3.07
2022-10-19T10:06:50.302Z,2.91
2022-10-19T10:09:37.934Z,2.10
2022-10-19T10:12:25.414Z,2.59
2022-10-19T10:15:09.610Z,2.54
2022-10-19T10:17:49.353Z,2.56
2022-10-19T10:20:35.031Z,2.57
2022-10-19T10:23:29.507Z,2.56
2022-10-19T10:26:09.353Z,2.58
2022-10-19T10:29:14.815Z,2.62
2022-10-19T10:32:15.612Z,2.59
2022-10-19T10:38:18.959Z,2.42
2022-10-19T10:44:13.269Z,2.18
2022-10-19T10:47:02.659Z,2.16
2022-10-19T10:49:49.159Z,2.07
2022-10-19T11:02:09.214Z,1.81
2022-10-19T11:04:52.275Z,1.90
2022-10-19T11:07:43.352Z,1.85
2022-10-19T11:10:31.019Z,1.88
2022-10-19T11:13:24.411Z,1.92
2022-10-19T11:16:17.688Z,1.37
2022-10-19T11:22:20.338Z,1.80
2022-10-19T11:25:27.319Z,1.78
2022-10-19T11:28:24.349Z,1.76
2022-10-19T11:31:26.383Z,1.72
2022-10-19T11:34:18.651Z,1.71
2022-10-19T11:37:06.850Z,1.69
2022-10-19T11:40:06.031Z,1.72
2022-10-19T11:42:57.128Z,1.70
2022-10-19T11:45:54.983Z,1.63
2022-10-19T11:49:10.489Z,1.68
2022-10-19T11:52:05.544Z,1.48
2022-10-19T11:55:10.853Z,1.60
2022-10-19T11:58:03.040Z,1.28
2022-10-19T12:01:12.002Z,1.51
2022-10-19T12:04:39.108Z,1.51
2022-10-19T12:08:09.479Z,1.49
2022-10-19T12:19:15.955Z,1.35
2022-10-19T12:22:21.889Z,1.29
2022-10-19T12:25:14.414Z,0.94
2022-10-19T12:31:01.529Z,1.14
2022-10-19T12:33:50.140Z,1.00
2022-10-19T12:37:02.751Z,1.00
2022-10-19T12:43:09.127Z,0.85
2022-10-19T12:46:28.762Z,0.77
2022-10-19T12:49:45.972Z,0.68
2022-10-19T12:53:09.698Z,0.70
2022-10-19T12:56:02.563Z,0.59
2022-10-19T12:58:55.010Z,0.66
2022-10-19T13:01:47.868Z,0.79
2022-10-19T13:11:19.355Z,0.66
2022-10-19T13:14:10.199Z,0.41
2022-10-19T13:17:01.584Z,0.43
2022-10-19T13:22:48.635Z,0.96
2022-10-19T13:25:32.001Z,0.91
2022-10-19T13:28:59.812Z,0.92
2022-10-19T13:31:49.991Z,0.91
2022-10-19T13:37:38.886Z,0.92
2022-10-19T13:40:38.610Z,1.05
2022-10-19T13:43:26.251Z,1.15
2022-10-19T13:46:18.645Z,1.37
2022-10-19T13:49:39.715Z,1.43
2022-10-19T13:53:14.890Z,1.45
2022-10-19T13:56:05.460Z,1.56
2022-10-19T13:59:35.535Z,1.46
2022-10-19T14:03:02.939Z,1.38
2022-10-19T14:06:28.368Z,1.28
2022-10-19T14:09:28.396Z,1.18
2022-10-19T14:12:16.880Z,1.24
2022-10-19T14:14:55.469Z,1.36
2022-10-19T14:17:38.196Z,0.97
2022-10-19T14:20:44.979Z,1.49
2022-10-19T14:23:37.906Z,1.11
2022-10-19T14:26:32.758Z,1.40
2022-10-19T14:29:13.230Z,1.62
2022-10-19T14:32:09.188Z,1.56
2022-10-19T14:35:01.312Z,1.52
2022-10-19T14:37:49.512Z,1.50
2022-10-19T14:40:36.460Z,1.42
2022-10-19T14:43:29.489Z,1.32
2022-10-19T14:46:25.871Z,0.76
2022-10-19T14:49:10.537Z,1.31
2022-10-19T14:52:03.719Z,1.22
2022-10-19T14:54:49.254Z,1.22
2022-10-19T14:57:45.876Z,1.07
2022-10-19T15:03:18.586Z,0.93
2022-10-19T15:05:58.590Z,0.92
2022-10-19T15:08:58.650Z,0.86
2022-10-19T15:14:41.961Z,0.75
2022-10-19T15:17:43.431Z,0.81
2022-10-19T15:21:11.748Z,0.81
2022-10-19T15:23:52.339Z,0.62
2022-10-19T15:26:44.698Z,0.45
2022-10-19T15:29:38.209Z,0.54
2022-10-19T15:32:34.326Z,0.14
2022-10-19T15:35:28.700Z,0.30
2022-10-19T15:38:08.751Z,0.23
2022-10-19T15:40:54.130Z,0.29
2022-10-19T15:44:00.571Z,-0.09
2022-10-19T15:46:42.828Z,0.01
2022-10-19T15:50:10.003Z,0.07
2022-10-19T15:52:50.762Z,0.07
2022-10-19T15:55:26.680Z,0.09
2022-10-19T15:58:22.244Z,-0.16
2022-10-19T16:01:08.654Z,0.09
2022-10-19T16:04:04.654Z,0.12
2022-10-19T16:06:51.074Z,0.06
2022-10-19T16:09:41.583Z,0.04
2022-10-19T16:12:30.876Z,-0.08
2022-10-19T16:15:21.143Z,-0.13
2022-10-19T16:18:03.179Z,-0.17
2022-10-19T16:21:13.062Z,-0.07
2022-10-19T16:23:57.602Z,-0.09
2022-10-19T16:26:49.466Z,-0.03
2022-10-19T16:29:32.353Z,0.05
2022-10-19T16:32:18.311Z,0.02
2022-10-19T16:34:58.144Z,-0.12
2022-10-19T16:37:49.086Z,-0.11
2022-10-19T16:40:42.718Z,-0.08
2022-10-19T16:43:27.038Z,-0.13
2022-10-19T16:46:12.166Z,-0.01
2022-10-19T16:48:58.164Z,0.10
2022-10-19T16:51:46.732Z,0.22
2022-10-19T16:54:40.185Z,0.24
2022-10-19T17:00:17.705Z,0.12
2022-10-19T17:03:09.086Z,-0.01
2022-10-19T17:05:53.415Z,0.07
2022-10-19T17:12:20.701Z,0.04
2022-10-19T17:15:42.459Z,-0.04
2022-10-19T17:18:21.224Z,-0.01
2022-10-19T17:24:03.587Z,-0.16
2022-10-19T17:27:05.898Z,-0.08
2022-10-19T17:30:10.860Z,-0.08
2022-10-19T17:32:48.962Z,-0.10
2022-10-19T17:35:26.327Z,-0.06
2022-10-19T17:38:21.574Z,-0.07
2022-10-19T17:40:59.156Z,-0.05
2022-10-19T17:43:45.498Z,-0.08
2022-10-19T17:46:23.119Z,-0.09
2022-10-19T17:49:06.594Z,-0.10
2022-10-19T17:52:20.847Z,-0.10
2022-10-19T17:55:18.737Z,-0.16
2022-10-19T17:58:01.959Z,-0.15
2022-10-19T18:00:39.673Z,-0.17
2022-10-19T18:06:13.362Z,-0.23
2022-10-19T18:08:55.160Z,-0.27
2022-10-19T18:11:37.814Z,-0.30
2022-10-19T18:17:10.178Z,-0.44
2022-10-19T18:19:56.537Z,-0.43
2022-10-19T18:22:51.032Z,-0.47
2022-10-19T18:25:49.325Z,-0.53
2022-10-19T18:28:38.309Z,-0.61
2022-10-19T18:31:19.267Z,-0.53
2022-10-19T18:34:14.789Z,-0.52
2022-10-19T18:37:17.595Z,-0.88
2022-10-19T18:40:02.600Z,-0.48
2022-10-19T18:42:46.246Z,-0.47
2022-10-19T18:48:37.792Z,-0.31
2022-10-19T18:54:28.201Z,-0.22
2022-10-19T18:57:22.169Z,-0.29
2022-10-19T19:00:01.553Z,-0.33
2022-10-19T19:02:47.360Z,-0.35
2022-10-19T19:05:33.627Z,-0.49
2022-10-19T19:08:22.113Z,-0.51
2022-10-19T19:10:59.362Z,-0.44
2022-10-19T19:13:52.639Z,-0.38
2022-10-19T19:16:43.311Z,-0.40
2022-10-19T19:19:41.629Z,-0.49
2022-10-19T19:22:28.003Z,-0.55
2022-10-19T19:27:55.953Z,-0.57
2022-10-19T19:30:48.087Z,-0.56
2022-10-19T19:33:31.408Z,-0.61
2022-10-19T19:36:20.567Z,-0.68
2022-10-19T19:39:08.349Z,-0.53
2022-10-19T19:41:45.948Z,-0.54
2022-10-19T19:44:24.195Z,-0.48
2022-10-19T19:47:10.902Z,-0.50
2022-10-19T19:49:55.789Z,-0.46
2022-10-19T19:52:32.853Z,-0.46
2022-10-19T19:55:29.066Z,-0.41
2022-10-19T19:58:15.408Z,-0.46
2022-10-19T20:01:04.015Z,-0.49
2022-10-19T20:03:53.522Z,-0.49
2022-10-19T20:06:42.510Z,-0.53
2022-10-19T20:09:21.826Z,-0.54
2022-10-19T20:11:57.815Z,-0.80
2022-10-19T20:14:42.662Z,-0.57
2022-10-19T20:23:33.165Z,-0.35
2022-10-19T20:26:15.330Z,-0.38
2022-10-19T20:29:04.733Z,-0.38
2022-10-19T20:31:49.439Z,-0.53
2022-10-19T20:34:30.677Z,-0.22
2022-10-19T20:37:14.706Z,-0.12
2022-10-19T20:40:23.484Z,-0.15
2022-10-19T20:43:03.613Z,-0.09
2022-10-19T20:45:47.746Z,0.02
2022-10-19T20:48:31.006Z,0.09
2022-10-19T20:51:22.450Z,0.09
2022-10-19T20:54:19.096Z,0.05
2022-10-19T20:57:11.011Z,-0.02
2022-10-19T21:00:04.692Z,0.11
2022-10-19T21:02:45.338Z,0.18
2022-10-19T21:05:22.408Z,0.23
2022-10-19T21:07:59.361Z,0.30
2022-10-19T21:10:38.589Z,0.22
2022-10-19T21:13:17.709Z,0.33
2022-10-19T21:16:10.535Z,0.40
2022-10-19T21:18:57.737Z,0.27
2022-10-19T21:21:35.813Z,0.47
2022-10-19T21:30:28.114Z,0.71
2022-10-19T21:33:05.515Z,0.70
2022-10-19T21:35:45.551Z,0.46
2022-10-19T21:38:30.594Z,0.89
2022-10-19T21:41:25.320Z,1.00
2022-10-19T21:44:21.126Z,1.06
2022-10-19T21:47:07.273Z,1.33
2022-10-19T21:49:46.065Z,1.44
2022-10-19T21:52:25.205Z,1.46
2022-10-19T21:55:10.349Z,1.53
2022-10-19T21:57:49.646Z,1.55
2022-10-19T22:01:26.410Z,1.58
2022-10-19T22:04:24.188Z,1.53
2022-10-19T22:10:00.059Z,1.54
2022-10-19T22:12:36.866Z,1.77
2022-10-19T22:15:16.213Z,1.84
2022-10-19T22:18:05.199Z,1.89
2022-10-19T22:20:47.282Z,2.03
2022-10-19T22:23:27.113Z,2.13
2022-10-19T22:26:13.020Z,2.27
2022-10-19T22:28:51.622Z,2.35
2022-10-19T22:31:38.064Z,2.38
2022-10-19T22:34:26.803Z,2.42
2022-10-19T22:37:18.619Z,2.49
2022-10-19T22:40:08.141Z,2.69
2022-10-19T22:45:56.712Z,2.89
2022-10-19T22:48:49.108Z,2.76
2022-10-19T22:51:34.018Z,3.12
2022-10-19T22:54:13.641Z,3.25
2022-10-19T22:56:52.316Z,3.24
2022-10-19T22:59:32.944Z,3.48
2022-10-19T23:02:13.836Z,3.64
2022-10-19T23:04:54.283Z,3.81
2022-10-19T23:07:40.389Z,3.92
2022-10-19T23:10:27.620Z,3.95
2022-10-19T23:13:12.657Z,3.99
2022-10-19T23:15:58.984Z,4.18
2022-10-19T23:18:40.276Z,4.39
2022-10-19T23:21:22.934Z,4.52
2022-10-19T23:24:24.596Z,4.91
2022-10-19T23:27:05.324Z,5.14
2022-10-19T23:29:51.717Z,5.30
2022-10-19T23:32:31.048Z,5.20
2022-10-19T23:38:10.904Z,5.79
2022-10-19T23:40:58.529Z,5.94
2022-10-19T23:43:55.904Z,6.20
2022-10-19T23:46:39.691Z,6.46
2022-10-19T23:49:24.845Z,6.68
2022-10-19T23:52:28.761Z,6.93
2022-10-19T23:55:13.557Z,7.19
2022-10-19T23:58:17.222Z,7.38
